GVACGCLP

Guest
Details From GVAC - Sal Amilcar Cabral Intl
To GCLP - Gran Canaria
Flight Number -
Tags generated
Created
Modified
Stats Distance 793 nm / 1,469 km
Max Altitude 35,000 ft / 10,668 m
Waypoints 7
Social Downloads 2
Likes 0
Share VATSIM

Download

Looking for another format? Having issues loading an existing format? Contact us
Advertisement - Login to hide

Notes

Basic altitude profile: - Ascent Rate: 2500ft/min - Ascent Speed: 250kts - Cruise Altitude: 35000ft - Cruise Speed: 420kts - Descent Rate: 1500ft/min - Descent Speed: 250kts Options: - Use NATs: yes - Use PACOTS: yes - Use low airways: yes - Use high airways: yes

Route

GVAC EDLIR B623 IPERA UB623 LIMAL B623 LOMAS GCLP

ID Type Via Altitude Latitude Longitude Leg Dist Tot Dist Heading (true) Name
O GVAC APT - 0 ft / 0 m 16.73821˚ -22.95050˚ - 0 nm - Sal Amilcar Cabral Intl
EDLIR FIX - 21,100 ft / 6,431 m 17.59500˚ -22.43972˚ 59 nm 59 nm 30° / 30° -
IPERA FIX B623 (AWY-LO) 23,500 ft / 7,163 m 20.36500˚ -20.70000˚ 193 nm 252 nm 30° / 31° -
ISOKA FIX UB623 (AWY-HI) 35,000 ft / 10,668 m 22.08136˚ -19.59002˚ 120 nm 373 nm 31° / 31° -
LIMAL FIX UB623 (AWY-HI) 35,000 ft / 10,668 m 25.00000˚ -17.62558˚ 205 nm 579 nm 31° / 32° -
LOMAS FIX B623 (AWY-LO) 5,500 ft / 1,676 m 27.72046˚ -15.69106˚ 193 nm 772 nm 32° / 33° -
O GCLP APT - 0 ft / 0 m 27.93154˚ -15.38559˚ 20 nm 793 nm 52° / 52° Gran Canaria

Altitude Profile

Advertisement - Login to hide

Weather


0- 5 10 15 20 25 30 35+ Temperature / ° C

Clouds and Precipitation
Forecast for 2018-05-21 12:00 UTC. Updated 38 minutes ago

Ground ~20,000 ft ~40,000 ft Winds

GVAC

Details ICAO GVAC (SID)
Name Sal Amilcar Cabral Intl
Region Cape Verde
Timezone Atlantic/Cape_Verde (UTC-1.0)
Stats Elevation 177 ft / 54 m (AMSL)
Location 16.738208° -22.950500°
Runways 2
Magnetic Variation 9.190° W

METAR

GVAC 210900Z 03013KT 9999 BKN014 22/16 Q1016 NOSIG

Decode

TAF

TAF GVAC 210500Z 2106/2212 03016KT 9999 BKN014 PROB30 TEMPO 2112/2118 04018G28KT

Decode

Departure Runways

ID Width Length Bearing (true) Bearing (mag) Surface Threshold Offset Overrun Length
01 148 ft / 45 m 10,826 ft / 3,300 m 359.69° 8.88° Asphalt 885 ft / 270 m 0 ft / 0 m
07 148 ft / 45 m 4,892 ft / 1,491 m 57.69° 66.88° Asphalt 200 ft / 61 m 0 ft / 0 m
19 148 ft / 45 m 10,826 ft / 3,300 m 179.69° 188.88° Asphalt 800 ft / 244 m 0 ft / 0 m
25 148 ft / 45 m 4,892 ft / 1,491 m 237.69° 246.88° Asphalt 200 ft / 61 m 0 ft / 0 m

GCLP

Details ICAO GCLP (LPA)
Name Gran Canaria
Region Canary Islands
Timezone Atlantic/Canary (UTC+1.0)
Stats Elevation 77 ft / 23 m (AMSL)
Location 27.931544° -15.385592°
Runways 2
Magnetic Variation 4.635° W

METAR

GCLP 210930Z 02016KT 9999 FEW028 SCT035 BKN040 20/12 Q1017 NOSIG

Decode

TAF

TAF GCLP 210800Z 2109/2209 01018KT 9999 FEW030 TX23/2115Z TN16/2205Z= TAF AMD KLRF 210815Z 2108/2213 20006KT 9999 VCTS SCT016CB BKN040 BKN200 QNH2996INS TEMPO 2108/2110 25009KT 8000 -TSRA BKN007CB BECMG 2109/2110 20006KT 9999 NSW SCT015 BKN200 QNH2999INS BECMG 2117/2118 28006KT 8000 -SHRA BKN055 BKN200 QNH2992INS TEMPO 2118/2124 23010G20KT 4800 -TSRA BKN020CB BECMG 2123/2124 16006KT 9999 NSW BKN065 QNH2995INS TX32/2121Z TN21/2111Z

Decode

Destination Runways

ID Width Length Bearing (true) Bearing (mag) Surface Threshold Offset Overrun Length
03L 148 ft / 45 m 10,203 ft / 3,110 m 21.33° 25.96° Asphalt 0 ft / 0 m 656 ft / 200 m
03R 148 ft / 45 m 10,200 ft / 3,109 m 21.32° 25.95° Asphalt 0 ft / 0 m 673 ft / 205 m
21L 148 ft / 45 m 10,200 ft / 3,109 m 201.33° 205.96° Asphalt 0 ft / 0 m 689 ft / 210 m
21R 148 ft / 45 m 10,203 ft / 3,110 m 201.33° 205.96° Asphalt 0 ft / 0 m 755 ft / 230 m

Approach Navaids

Runway Type Ident Frequency Range Bearing (true) Bearing (mag) Slope Elevation
03L Localiser ILP 109.90 MHz 18 nm / 33 km 21.33° 25.97° - 77 ft / 23 m (AMSL)
03L Glidescope ILP 109.90 MHz 10 nm / 19 km 21.33° 25.97° 3.00° 102 ft / 31 m (AMSL)
03L DME ILP 109.90 MHz 18 nm / 33 km - - - 102 ft / 31 m (AMSL)
21R Localiser RLP 110.70 MHz 18 nm / 33 km 201.32° 205.96° - 77 ft / 23 m (AMSL)
21R Glidescope RLP 110.70 MHz 10 nm / 19 km 201.33° 205.97° 3.00° 77 ft / 23 m (AMSL)
21R DME RLP 110.70 MHz 18 nm / 33 km - - - 57 ft / 17 m (AMSL)

Popular Alternatives